sensor_id;sensor_type;location;lat;lon;timestamp;P1;durP1;ratioP1;P2;durP2;ratioP2
10440;SDS011;5268;49.346;9.522;2024-02-21T04:08:18;7.85;;;3.70;;
10440;SDS011;5268;49.346;9.522;2024-02-21T04:13:20;8.50;;;3.55;;
10440;SDS011;5268;49.346;9.522;2024-02-21T04:18:23;9.38;;;3.60;;
10440;SDS011;5268;49.346;9.522;2024-02-21T04:23:26;6.90;;;3.47;;
10440;SDS011;5268;49.346;9.522;2024-02-21T04:28:28;10.13;;;4.63;;
10440;SDS011;5268;49.346;9.522;2024-02-21T04:33:30;12.20;;;5.60;;
10440;SDS011;5268;49.346;9.522;2024-02-21T04:38:34;11.68;;;7.88;;
10440;SDS011;5268;49.346;9.522;2024-02-21T04:43:36;12.85;;;5.53;;
10440;SDS011;5268;49.346;9.522;2024-02-21T04:48:49;8.20;;;3.60;;
10440;SDS011;5268;49.346;9.522;2024-02-21T05:06:25;7.55;;;3.45;;
10440;SDS011;5268;49.346;9.522;2024-02-21T05:11:27;9.98;;;4.00;;
10440;SDS011;5268;49.346;9.522;2024-02-21T05:16:29;9.55;;;4.43;;
10440;SDS011;5268;49.346;9.522;2024-02-21T05:21:33;10.10;;;4.50;;
10440;SDS011;5268;49.346;9.522;2024-02-21T05:26:39;10.15;;;4.05;;
10440;SDS011;5268;49.346;9.522;2024-02-21T05:32:08;9.32;;;4.25;;
10440;SDS011;5268;49.346;9.522;2024-02-21T05:37:18;9.23;;;3.85;;
10440;SDS011;5268;49.346;9.522;2024-02-21T05:42:20;10.20;;;3.88;;
10440;SDS011;5268;49.346;9.522;2024-02-21T05:47:23;7.00;;;3.03;;
10440;SDS011;5268;49.346;9.522;2024-02-21T05:52:34;6.57;;;3.03;;
10440;SDS011;5268;49.346;9.522;2024-02-21T05:57:53;9.68;;;3.50;;
10440;SDS011;5268;49.346;9.522;2024-02-21T06:02:55;6.35;;;3.13;;
10440;SDS011;5268;49.346;9.522;2024-02-21T06:07:58;8.07;;;3.88;;
10440;SDS011;5268;49.346;9.522;2024-02-21T06:13:00;12.38;;;6.32;;
10440;SDS011;5268;49.346;9.522;2024-02-21T06:18:03;10.15;;;4.93;;
10440;SDS011;5268;49.346;9.522;2024-02-21T06:23:06;7.55;;;4.38;;
10440;SDS011;5268;49.346;9.522;2024-02-21T06:28:09;8.70;;;3.90;;
10440;SDS011;5268;49.346;9.522;2024-02-21T06:33:11;8.75;;;4.85;;
10440;SDS011;5268;49.346;9.522;2024-02-21T06:38:14;6.43;;;3.63;;
10440;SDS011;5268;49.346;9.522;2024-02-21T06:43:18;8.20;;;3.83;;
10440;SDS011;5268;49.346;9.522;2024-02-21T06:48:21;8.73;;;4.00;;
10440;SDS011;5268;49.346;9.522;2024-02-21T06:53:24;7.75;;;3.80;;
10440;SDS011;5268;49.346;9.522;2024-02-21T06:58:26;9.43;;;3.70;;
10440;SDS011;5268;49.346;9.522;2024-02-21T07:03:28;8.38;;;3.40;;
10440;SDS011;5268;49.346;9.522;2024-02-21T07:08:31;6.65;;;3.70;;
10440;SDS011;5268;49.346;9.522;2024-02-21T07:13:34;7.82;;;3.78;;
10440;SDS011;5268;49.346;9.522;2024-02-21T07:18:36;8.88;;;4.35;;
10440;SDS011;5268;49.346;9.522;2024-02-21T07:23:41;6.18;;;3.40;;
10440;SDS011;5268;49.346;9.522;2024-02-21T07:34:43;9.55;;;6.07;;
10440;SDS011;5268;49.346;9.522;2024-02-21T07:39:47;7.93;;;4.18;;
10440;SDS011;5268;49.346;9.522;2024-02-21T07:44:50;7.32;;;3.22;;
10440;SDS011;5268;49.346;9.522;2024-02-21T07:49:59;7.47;;;2.75;;
10440;SDS011;5268;49.346;9.522;2024-02-21T07:55:04;7.05;;;3.00;;
10440;SDS011;5268;49.346;9.522;2024-02-21T08:00:07;7.38;;;3.50;;
10440;SDS011;5268;49.346;9.522;2024-02-21T08:05:17;9.43;;;3.60;;
10440;SDS011;5268;49.346;9.522;2024-02-21T08:10:21;7.50;;;3.85;;
10440;SDS011;5268;49.346;9.522;2024-02-21T08:15:23;10.05;;;3.60;;
10440;SDS011;5268;49.346;9.522;2024-02-21T08:20:29;5.63;;;3.10;;
10440;SDS011;5268;49.346;9.522;2024-02-21T08:25:33;7.10;;;3.20;;
10440;SDS011;5268;49.346;9.522;2024-02-21T08:30:35;7.00;;;3.20;;
10440;SDS011;5268;49.346;9.522;2024-02-21T08:35:37;4.97;;;2.60;;
10440;SDS011;5268;49.346;9.522;2024-02-21T08:40:40;6.45;;;2.78;;
10440;SDS011;5268;49.346;9.522;2024-02-21T08:45:42;7.70;;;3.55;;
10440;SDS011;5268;49.346;9.522;2024-02-21T08:50:44;7.82;;;3.08;;
10440;SDS011;5268;49.346;9.522;2024-02-21T08:55:47;4.85;;;2.70;;
10440;SDS011;5268;49.346;9.522;2024-02-21T09:00:49;6.20;;;2.80;;
10440;SDS011;5268;49.346;9.522;2024-02-21T09:05:52;7.25;;;3.08;;
10440;SDS011;5268;49.346;9.522;2024-02-21T09:10:56;8.38;;;3.83;;
10440;SDS011;5268;49.346;9.522;2024-02-21T09:15:58;6.65;;;2.97;;
10440;SDS011;5268;49.346;9.522;2024-02-21T09:20:59;8.05;;;3.60;;
10440;SDS011;5268;49.346;9.522;2024-02-21T09:26:03;8.10;;;2.65;;
10440;SDS011;5268;49.346;9.522;2024-02-21T09:31:05;6.32;;;2.20;;
10440;SDS011;5268;49.346;9.522;2024-02-21T09:36:08;6.10;;;2.38;;
10440;SDS011;5268;49.346;9.522;2024-02-21T09:41:14;6.63;;;2.63;;
10440;SDS011;5268;49.346;9.522;2024-02-21T09:46:18;7.25;;;2.72;;
10440;SDS011;5268;49.346;9.522;2024-02-21T09:51:20;5.18;;;2.20;;
10440;SDS011;5268;49.346;9.522;2024-02-21T09:56:24;4.93;;;2.13;;
10440;SDS011;5268;49.346;9.522;2024-02-21T10:01:27;5.65;;;2.22;;
10440;SDS011;5268;49.346;9.522;2024-02-21T10:06:29;4.55;;;2.05;;
10440;SDS011;5268;49.346;9.522;2024-02-21T10:11:32;7.60;;;2.60;;
10440;SDS011;5268;49.346;9.522;2024-02-21T10:16:35;4.97;;;2.22;;
10440;SDS011;5268;49.346;9.522;2024-02-21T10:21:37;4.88;;;1.90;;
10440;SDS011;5268;49.346;9.522;2024-02-21T10:26:40;4.70;;;2.03;;
10440;SDS011;5268;49.346;9.522;2024-02-21T10:31:42;4.13;;;2.10;;
10440;SDS011;5268;49.346;9.522;2024-02-21T10:36:44;4.15;;;2.10;;
10440;SDS011;5268;49.346;9.522;2024-02-21T10:41:48;5.80;;;2.13;;
10440;SDS011;5268;49.346;9.522;2024-02-21T10:46:50;8.00;;;2.42;;
10440;SDS011;5268;49.346;9.522;2024-02-21T10:51:54;12.02;;;7.68;;
10440;SDS011;5268;49.346;9.522;2024-02-21T10:57:02;7.20;;;2.83;;
10440;SDS011;5268;49.346;9.522;2024-02-21T11:02:05;5.70;;;2.47;;
10440;SDS011;5268;49.346;9.522;2024-02-21T11:07:07;8.23;;;4.90;;
10440;SDS011;5268;49.346;9.522;2024-02-21T12:32:56;7.03;;;2.15;;
10440;SDS011;5268;49.346;9.522;2024-02-21T12:37:59;6.43;;;2.25;;
10440;SDS011;5268;49.346;9.522;2024-02-21T12:43:03;5.38;;;1.88;;
10440;SDS011;5268;49.346;9.522;2024-02-21T12:48:05;6.30;;;2.80;;
10440;SDS011;5268;49.346;9.522;2024-02-21T12:53:07;6.63;;;3.00;;
10440;SDS011;5268;49.346;9.522;2024-02-21T12:58:11;7.05;;;2.03;;
10440;SDS011;5268;49.346;9.522;2024-02-21T13:03:14;4.05;;;1.95;;
10440;SDS011;5268;49.346;9.522;2024-02-21T13:08:16;6.57;;;2.47;;
10440;SDS011;5268;49.346;9.522;2024-02-21T13:13:22;5.72;;;1.92;;
10440;SDS011;5268;49.346;9.522;2024-02-21T13:18:24;4.82;;;2.10;;
10440;SDS011;5268;49.346;9.522;2024-02-21T13:23:26;7.75;;;2.58;;
10440;SDS011;5268;49.346;9.522;2024-02-21T13:28:29;6.88;;;2.00;;
10440;SDS011;5268;49.346;9.522;2024-02-21T13:33:31;5.78;;;2.28;;
10440;SDS011;5268;49.346;9.522;2024-02-21T13:38:33;5.65;;;2.00;;
10440;SDS011;5268;49.346;9.522;2024-02-21T13:43:37;7.50;;;2.17;;
10440;SDS011;5268;49.346;9.522;2024-02-21T13:48:39;6.13;;;1.92;;
10440;SDS011;5268;49.346;9.522;2024-02-21T13:53:41;6.53;;;2.05;;
10440;SDS011;5268;49.346;9.522;2024-02-21T13:58:45;4.78;;;1.83;;
10440;SDS011;5268;49.346;9.522;2024-02-21T14:03:46;7.53;;;2.15;;
10440;SDS011;5268;49.346;9.522;2024-02-21T14:08:49;4.88;;;2.20;;
10440;SDS011;5268;49.346;9.522;2024-02-21T14:13:52;5.07;;;2.10;;
10440;SDS011;5268;49.346;9.522;2024-02-21T14:18:57;7.20;;;2.17;;
10440;SDS011;5268;49.346;9.522;2024-02-21T14:23:59;5.50;;;2.03;;
10440;SDS011;5268;49.346;9.522;2024-02-21T14:29:04;4.47;;;1.80;;
10440;SDS011;5268;49.346;9.522;2024-02-21T14:34:06;9.70;;;5.75;;
10440;SDS011;5268;49.346;9.522;2024-02-21T14:39:08;6.93;;;3.53;;
10440;SDS011;5268;49.346;9.522;2024-02-21T14:44:12;6.57;;;2.30;;
10440;SDS011;5268;49.346;9.522;2024-02-21T14:49:14;5.65;;;2.00;;
10440;SDS011;5268;49.346;9.522;2024-02-21T14:54:16;7.22;;;2.30;;
10440;SDS011;5268;49.346;9.522;2024-02-21T14:59:21;5.95;;;2.40;;
10440;SDS011;5268;49.346;9.522;2024-02-21T15:04:23;5.30;;;2.00;;
10440;SDS011;5268;49.346;9.522;2024-02-21T15:09:25;5.38;;;2.20;;
10440;SDS011;5268;49.346;9.522;2024-02-21T15:14:29;4.63;;;1.98;;
10440;SDS011;5268;49.346;9.522;2024-02-21T15:19:31;4.00;;;2.00;;
10440;SDS011;5268;49.346;9.522;2024-02-21T15:24:33;4.15;;;2.53;;
10440;SDS011;5268;49.346;9.522;2024-02-21T15:29:36;4.90;;;2.30;;
10440;SDS011;5268;49.346;9.522;2024-02-21T15:34:39;2.72;;;1.55;;
10440;SDS011;5268;49.346;9.522;2024-02-21T15:39:41;4.32;;;2.00;;
10440;SDS011;5268;49.346;9.522;2024-02-21T15:44:45;6.78;;;2.60;;
10440;SDS011;5268;49.346;9.522;2024-02-21T15:49:47;4.95;;;2.10;;
10440;SDS011;5268;49.346;9.522;2024-02-21T15:54:49;4.82;;;2.10;;
10440;SDS011;5268;49.346;9.522;2024-02-21T15:59:53;3.95;;;2.20;;
10440;SDS011;5268;49.346;9.522;2024-02-21T16:04:56;6.57;;;2.15;;
10440;SDS011;5268;49.346;9.522;2024-02-21T16:09:58;4.60;;;1.85;;
10440;SDS011;5268;49.346;9.522;2024-02-21T16:15:02;3.67;;;1.77;;
10440;SDS011;5268;49.346;9.522;2024-02-21T16:20:06;5.80;;;1.90;;
10440;SDS011;5268;49.346;9.522;2024-02-21T16:25:10;8.38;;;2.20;;
10440;SDS011;5268;49.346;9.522;2024-02-21T16:30:14;6.35;;;3.10;;
10440;SDS011;5268;49.346;9.522;2024-02-21T16:35:17;6.05;;;3.03;;
10440;SDS011;5268;49.346;9.522;2024-02-21T16:40:19;7.80;;;3.03;;
10440;SDS011;5268;49.346;9.522;2024-02-21T16:45:22;6.05;;;3.20;;
10440;SDS011;5268;49.346;9.522;2024-02-21T16:50:24;7.97;;;4.65;;
10440;SDS011;5268;49.346;9.522;2024-02-21T16:55:26;6.68;;;3.92;;
10440;SDS011;5268;49.346;9.522;2024-02-21T17:00:30;5.60;;;2.95;;
10440;SDS011;5268;49.346;9.522;2024-02-21T17:05:33;4.00;;;2.90;;
10440;SDS011;5268;49.346;9.522;2024-02-21T17:10:37;15.75;;;12.45;;
10440;SDS011;5268;49.346;9.522;2024-02-21T17:15:41;11.90;;;5.95;;
10440;SDS011;5268;49.346;9.522;2024-02-21T17:20:43;18.15;;;10.52;;
10440;SDS011;5268;49.346;9.522;2024-02-21T17:25:48;16.02;;;7.72;;
10440;SDS011;5268;49.346;9.522;2024-02-21T17:30:51;20.13;;;11.93;;
10440;SDS011;5268;49.346;9.522;2024-02-21T17:35:53;36.75;;;23.52;;
10440;SDS011;5268;49.346;9.522;2024-02-21T17:40:55;25.20;;;13.05;;
10440;SDS011;5268;49.346;9.522;2024-02-21T17:46:00;15.50;;;7.95;;
10440;SDS011;5268;49.346;9.522;2024-02-21T17:51:03;7.95;;;4.82;;
10440;SDS011;5268;49.346;9.522;2024-02-21T17:56:05;7.35;;;3.75;;
10440;SDS011;5268;49.346;9.522;2024-02-21T18:01:09;12.82;;;7.57;;
10440;SDS011;5268;49.346;9.522;2024-02-21T18:06:11;11.23;;;7.13;;
10440;SDS011;5268;49.346;9.522;2024-02-21T18:11:13;11.75;;;6.93;;
10440;SDS011;5268;49.346;9.522;2024-02-21T18:16:17;12.27;;;7.88;;
10440;SDS011;5268;49.346;9.522;2024-02-21T18:21:19;10.35;;;6.68;;
10440;SDS011;5268;49.346;9.522;2024-02-21T18:26:21;12.23;;;7.97;;
10440;SDS011;5268;49.346;9.522;2024-02-21T18:31:25;11.65;;;7.93;;
10440;SDS011;5268;49.346;9.522;2024-02-21T18:36:27;13.88;;;9.30;;
10440;SDS011;5268;49.346;9.522;2024-02-21T18:41:29;10.35;;;6.05;;
10440;SDS011;5268;49.346;9.522;2024-02-21T18:46:33;8.77;;;4.93;;
10440;SDS011;5268;49.346;9.522;2024-02-21T18:51:35;7.68;;;4.10;;
10440;SDS011;5268;49.346;9.522;2024-02-21T18:56:38;6.60;;;3.40;;
10440;SDS011;5268;49.346;9.522;2024-02-21T19:01:42;9.43;;;6.45;;
10440;SDS011;5268;49.346;9.522;2024-02-21T19:06:46;8.02;;;3.95;;
10440;SDS011;5268;49.346;9.522;2024-02-21T19:11:52;12.32;;;7.00;;
10440;SDS011;5268;49.346;9.522;2024-02-21T19:16:56;10.80;;;6.40;;
10440;SDS011;5268;49.346;9.522;2024-02-21T19:21:58;13.43;;;8.57;;
10440;SDS011;5268;49.346;9.522;2024-02-21T19:27:00;10.32;;;6.30;;
10440;SDS011;5268;49.346;9.522;2024-02-21T19:32:04;15.95;;;10.68;;
10440;SDS011;5268;49.346;9.522;2024-02-21T19:37:07;11.40;;;7.22;;
10440;SDS011;5268;49.346;9.522;2024-02-21T19:42:09;7.90;;;4.30;;
10440;SDS011;5268;49.346;9.522;2024-02-21T19:47:15;10.52;;;5.30;;
10440;SDS011;5268;49.346;9.522;2024-02-21T19:52:17;14.75;;;8.60;;
10440;SDS011;5268;49.346;9.522;2024-02-21T19:57:19;23.20;;;15.77;;
10440;SDS011;5268;49.346;9.522;2024-02-21T20:02:26;16.98;;;12.15;;
10440;SDS011;5268;49.346;9.522;2024-02-21T20:07:28;12.05;;;6.20;;
10440;SDS011;5268;49.346;9.522;2024-02-21T20:12:31;12.23;;;7.95;;
10440;SDS011;5268;49.346;9.522;2024-02-21T20:17:35;11.32;;;7.70;;
10440;SDS011;5268;49.346;9.522;2024-02-21T20:22:41;16.25;;;9.05;;
10440;SDS011;5268;49.346;9.522;2024-02-21T20:27:43;14.07;;;10.20;;
10440;SDS011;5268;49.346;9.522;2024-02-21T20:32:48;18.80;;;9.32;;
10440;SDS011;5268;49.346;9.522;2024-02-21T20:37:52;9.38;;;4.75;;
10440;SDS011;5268;49.346;9.522;2024-02-21T20:42:54;11.18;;;7.63;;
10440;SDS011;5268;49.346;9.522;2024-02-21T20:47:59;11.80;;;7.97;;
10440;SDS011;5268;49.346;9.522;2024-02-21T20:53:01;10.88;;;7.32;;
10440;SDS011;5268;49.346;9.522;2024-02-21T20:58:03;8.13;;;4.03;;
10440;SDS011;5268;49.346;9.522;2024-02-21T21:03:07;7.65;;;3.78;;
10440;SDS011;5268;49.346;9.522;2024-02-21T21:08:10;6.15;;;2.50;;
10440;SDS011;5268;49.346;9.522;2024-02-21T21:13:12;4.40;;;2.97;;
10440;SDS011;5268;49.346;9.522;2024-02-21T21:18:16;4.20;;;2.78;;
10440;SDS011;5268;49.346;9.522;2024-02-21T21:23:19;6.35;;;3.08;;
10440;SDS011;5268;49.346;9.522;2024-02-21T21:28:21;7.57;;;3.58;;
10440;SDS011;5268;49.346;9.522;2024-02-21T21:33:26;5.15;;;3.50;;
10440;SDS011;5268;49.346;9.522;2024-02-21T21:38:28;5.38;;;3.53;;
10440;SDS011;5268;49.346;9.522;2024-02-21T21:43:31;6.40;;;3.92;;
10440;SDS011;5268;49.346;9.522;2024-02-21T21:48:34;11.30;;;7.90;;
10440;SDS011;5268;49.346;9.522;2024-02-21T21:53:36;4.88;;;3.10;;
10440;SDS011;5268;49.346;9.522;2024-02-21T21:58:39;2.90;;;2.15;;
10440;SDS011;5268;49.346;9.522;2024-02-21T22:03:43;3.28;;;1.73;;
10440;SDS011;5268;49.346;9.522;2024-02-21T22:08:45;2.72;;;1.42;;
10440;SDS011;5268;49.346;9.522;2024-02-21T22:13:47;1.50;;;0.95;;
10440;SDS011;5268;49.346;9.522;2024-02-21T22:18:51;1.88;;;1.10;;
10440;SDS011;5268;49.346;9.522;2024-02-21T22:23:53;0.98;;;0.88;;
10440;SDS011;5268;49.346;9.522;2024-02-21T22:28:55;1.02;;;0.70;;
10440;SDS011;5268;49.346;9.522;2024-02-21T22:33:59;2.08;;;1.00;;
10440;SDS011;5268;49.346;9.522;2024-02-21T22:39:02;1.92;;;1.00;;
10440;SDS011;5268;49.346;9.522;2024-02-21T22:44:05;1.42;;;0.90;;
10440;SDS011;5268;49.346;9.522;2024-02-21T22:49:08;2.80;;;1.05;;
10440;SDS011;5268;49.346;9.522;2024-02-21T22:54:10;1.23;;;0.98;;
